sensor_id;sensor_type;location;lat;lon;timestamp;temperature;humidity
19279;DHT22;9773;47.062;15.446;2023-05-07T00:00:04;15.20;99.90
19279;DHT22;9773;47.062;15.446;2023-05-07T00:02:33;15.20;99.90
19279;DHT22;9773;47.062;15.446;2023-05-07T00:04:59;15.30;99.90
19279;DHT22;9773;47.062;15.446;2023-05-07T00:07:25;15.30;99.90
19279;DHT22;9773;47.062;15.446;2023-05-07T00:09:51;15.30;99.90
19279;DHT22;9773;47.062;15.446;2023-05-07T00:12:16;15.30;99.90
19279;DHT22;9773;47.062;15.446;2023-05-07T00:14:42;15.30;99.90
19279;DHT22;9773;47.062;15.446;2023-05-07T00:17:08;15.40;99.90
19279;DHT22;9773;47.062;15.446;2023-05-07T00:19:34;15.50;99.90
19279;DHT22;9773;47.062;15.446;2023-05-07T00:21:59;15.50;99.90
19279;DHT22;9773;47.062;15.446;2023-05-07T00:24:25;15.50;99.90
19279;DHT22;9773;47.062;15.446;2023-05-07T00:26:51;15.50;99.90
19279;DHT22;9773;47.062;15.446;2023-05-07T00:29:18;15.50;99.90
19279;DHT22;9773;47.062;15.446;2023-05-07T00:31:44;15.40;99.90
19279;DHT22;9773;47.062;15.446;2023-05-07T00:34:10;16.80;99.90
19279;DHT22;9773;47.062;15.446;2023-05-07T00:36:35;15.30;99.90
19279;DHT22;9773;47.062;15.446;2023-05-07T00:39:01;15.30;99.90
19279;DHT22;9773;47.062;15.446;2023-05-07T00:41:29;14.80;99.90
19279;DHT22;9773;47.062;15.446;2023-05-07T00:43:56;15.30;99.90
19279;DHT22;9773;47.062;15.446;2023-05-07T00:46:23;15.30;99.90
19279;DHT22;9773;47.062;15.446;2023-05-07T00:48:50;15.30;99.90
19279;DHT22;9773;47.062;15.446;2023-05-07T00:51:17;15.30;99.90
19279;DHT22;9773;47.062;15.446;2023-05-07T00:53:46;15.30;99.90
19279;DHT22;9773;47.062;15.446;2023-05-07T00:56:13;15.30;99.90
19279;DHT22;9773;47.062;15.446;2023-05-07T00:58:38;15.30;99.90
19279;DHT22;9773;47.062;15.446;2023-05-07T01:01:04;15.10;99.90
19279;DHT22;9773;47.062;15.446;2023-05-07T01:03:30;15.10;99.90
19279;DHT22;9773;47.062;15.446;2023-05-07T01:05:57;15.00;99.90
19279;DHT22;9773;47.062;15.446;2023-05-07T01:08:25;15.10;99.90
19279;DHT22;9773;47.062;15.446;2023-05-07T01:10:54;15.10;99.90
19279;DHT22;9773;47.062;15.446;2023-05-07T01:13:21;15.00;99.90
19279;DHT22;9773;47.062;15.446;2023-05-07T01:15:49;15.00;99.90
19279;DHT22;9773;47.062;15.446;2023-05-07T01:18:15;14.90;99.90
19279;DHT22;9773;47.062;15.446;2023-05-07T01:20:42;14.90;99.90
19279;DHT22;9773;47.062;15.446;2023-05-07T01:23:08;14.80;99.90
19279;DHT22;9773;47.062;15.446;2023-05-07T01:25:34;14.80;99.90
19279;DHT22;9773;47.062;15.446;2023-05-07T01:28:00;14.80;99.90
19279;DHT22;9773;47.062;15.446;2023-05-07T01:30:27;14.80;99.90
19279;DHT22;9773;47.062;15.446;2023-05-07T01:33:01;14.70;99.90
19279;DHT22;9773;47.062;15.446;2023-05-07T01:35:34;14.60;99.90
19279;DHT22;9773;47.062;15.446;2023-05-07T01:38:02;14.50;99.90
19279;DHT22;9773;47.062;15.446;2023-05-07T01:40:30;14.60;99.90
19279;DHT22;9773;47.062;15.446;2023-05-07T01:42:56;14.60;99.90
19279;DHT22;9773;47.062;15.446;2023-05-07T01:45:23;14.50;99.90
19279;DHT22;9773;47.062;15.446;2023-05-07T01:47:49;14.40;99.90
19279;DHT22;9773;47.062;15.446;2023-05-07T01:50:17;14.40;99.90
19279;DHT22;9773;47.062;15.446;2023-05-07T01:52:43;14.40;99.90
19279;DHT22;9773;47.062;15.446;2023-05-07T01:55:09;14.40;99.90
19279;DHT22;9773;47.062;15.446;2023-05-07T01:57:35;14.40;99.90
19279;DHT22;9773;47.062;15.446;2023-05-07T02:00:01;14.30;99.90
19279;DHT22;9773;47.062;15.446;2023-05-07T02:02:28;14.30;99.90
19279;DHT22;9773;47.062;15.446;2023-05-07T02:04:54;14.30;99.90
19279;DHT22;9773;47.062;15.446;2023-05-07T02:07:19;14.30;99.90
19279;DHT22;9773;47.062;15.446;2023-05-07T02:09:45;14.30;99.90
19279;DHT22;9773;47.062;15.446;2023-05-07T02:12:11;14.30;99.90
19279;DHT22;9773;47.062;15.446;2023-05-07T02:14:37;14.30;99.90
19279;DHT22;9773;47.062;15.446;2023-05-07T02:17:03;14.30;99.90
19279;DHT22;9773;47.062;15.446;2023-05-07T02:19:28;14.30;99.90
19279;DHT22;9773;47.062;15.446;2023-05-07T02:21:54;14.20;99.90
19279;DHT22;9773;47.062;15.446;2023-05-07T02:24:20;14.20;99.90
19279;DHT22;9773;47.062;15.446;2023-05-07T02:26:46;14.20;99.90
19279;DHT22;9773;47.062;15.446;2023-05-07T02:29:12;14.20;99.90
19279;DHT22;9773;47.062;15.446;2023-05-07T02:31:37;14.20;99.90
19279;DHT22;9773;47.062;15.446;2023-05-07T02:34:03;14.20;99.90
19279;DHT22;9773;47.062;15.446;2023-05-07T02:36:29;14.10;99.90
19279;DHT22;9773;47.062;15.446;2023-05-07T02:38:55;14.20;99.90
19279;DHT22;9773;47.062;15.446;2023-05-07T02:41:20;14.10;99.90
19279;DHT22;9773;47.062;15.446;2023-05-07T02:43:46;14.00;99.90
19279;DHT22;9773;47.062;15.446;2023-05-07T02:46:12;13.90;99.90
19279;DHT22;9773;47.062;15.446;2023-05-07T02:48:38;13.90;99.90
19279;DHT22;9773;47.062;15.446;2023-05-07T02:51:04;13.90;99.90
19279;DHT22;9773;47.062;15.446;2023-05-07T02:53:31;13.90;99.90
19279;DHT22;9773;47.062;15.446;2023-05-07T02:55:57;13.80;99.90
19279;DHT22;9773;47.062;15.446;2023-05-07T02:58:23;13.80;99.90
19279;DHT22;9773;47.062;15.446;2023-05-07T03:00:49;13.80;99.90
19279;DHT22;9773;47.062;15.446;2023-05-07T03:03:15;13.80;99.90
19279;DHT22;9773;47.062;15.446;2023-05-07T03:05:41;13.80;99.90
19279;DHT22;9773;47.062;15.446;2023-05-07T03:08:08;13.70;99.90
19279;DHT22;9773;47.062;15.446;2023-05-07T03:10:33;13.70;99.90
19279;DHT22;9773;47.062;15.446;2023-05-07T03:13:01;13.70;99.90
19279;DHT22;9773;47.062;15.446;2023-05-07T03:15:27;13.70;99.90
19279;DHT22;9773;47.062;15.446;2023-05-07T03:17:52;13.70;99.90
19279;DHT22;9773;47.062;15.446;2023-05-07T03:20:18;13.80;99.90
19279;DHT22;9773;47.062;15.446;2023-05-07T03:22:44;13.80;99.90
19279;DHT22;9773;47.062;15.446;2023-05-07T03:25:10;13.80;99.90
19279;DHT22;9773;47.062;15.446;2023-05-07T03:27:36;13.80;99.90
19279;DHT22;9773;47.062;15.446;2023-05-07T03:30:03;13.80;99.90
19279;DHT22;9773;47.062;15.446;2023-05-07T03:32:29;13.80;99.90
19279;DHT22;9773;47.062;15.446;2023-05-07T03:34:55;13.80;99.90
19279;DHT22;9773;47.062;15.446;2023-05-07T03:37:24;13.80;99.90
19279;DHT22;9773;47.062;15.446;2023-05-07T03:39:50;14.90;99.90
19279;DHT22;9773;47.062;15.446;2023-05-07T03:42:15;13.70;99.90
19279;DHT22;9773;47.062;15.446;2023-05-07T03:44:41;13.60;99.90
19279;DHT22;9773;47.062;15.446;2023-05-07T03:47:07;13.70;99.90
19279;DHT22;9773;47.062;15.446;2023-05-07T03:49:33;13.60;99.90
19279;DHT22;9773;47.062;15.446;2023-05-07T03:51:59;13.60;99.90
19279;DHT22;9773;47.062;15.446;2023-05-07T03:54:24;13.60;99.90
19279;DHT22;9773;47.062;15.446;2023-05-07T03:56:53;13.50;99.90
19279;DHT22;9773;47.062;15.446;2023-05-07T03:59:19;13.50;99.90
19279;DHT22;9773;47.062;15.446;2023-05-07T04:01:44;13.50;99.90
19279;DHT22;9773;47.062;15.446;2023-05-07T04:04:10;13.40;99.90
19279;DHT22;9773;47.062;15.446;2023-05-07T04:06:36;13.30;99.90
19279;DHT22;9773;47.062;15.446;2023-05-07T04:09:03;13.40;99.90
19279;DHT22;9773;47.062;15.446;2023-05-07T04:11:29;13.40;99.90
19279;DHT22;9773;47.062;15.446;2023-05-07T04:13:55;13.40;99.90
19279;DHT22;9773;47.062;15.446;2023-05-07T04:16:20;13.50;99.90
19279;DHT22;9773;47.062;15.446;2023-05-07T04:18:46;13.60;99.90
19279;DHT22;9773;47.062;15.446;2023-05-07T04:21:19;13.60;99.90
19279;DHT22;9773;47.062;15.446;2023-05-07T04:23:47;13.50;99.90
19279;DHT22;9773;47.062;15.446;2023-05-07T04:26:13;13.50;99.90
19279;DHT22;9773;47.062;15.446;2023-05-07T04:28:39;13.50;99.90
19279;DHT22;9773;47.062;15.446;2023-05-07T04:31:05;13.50;99.90
19279;DHT22;9773;47.062;15.446;2023-05-07T04:33:32;13.50;99.90
19279;DHT22;9773;47.062;15.446;2023-05-07T04:36:00;13.50;99.90
19279;DHT22;9773;47.062;15.446;2023-05-07T04:38:29;13.50;99.90
19279;DHT22;9773;47.062;15.446;2023-05-07T04:40:56;13.50;99.90
19279;DHT22;9773;47.062;15.446;2023-05-07T04:43:22;13.60;99.90
19279;DHT22;9773;47.062;15.446;2023-05-07T04:45:50;13.60;99.90
19279;DHT22;9773;47.062;15.446;2023-05-07T04:48:16;13.50;99.90
19279;DHT22;9773;47.062;15.446;2023-05-07T04:50:47;13.50;99.90
19279;DHT22;9773;47.062;15.446;2023-05-07T04:53:12;13.50;99.90
19279;DHT22;9773;47.062;15.446;2023-05-07T04:55:38;13.50;99.90
19279;DHT22;9773;47.062;15.446;2023-05-07T04:58:04;13.60;99.90
19279;DHT22;9773;47.062;15.446;2023-05-07T05:00:30;13.60;99.90
19279;DHT22;9773;47.062;15.446;2023-05-07T05:02:56;13.60;99.90
19279;DHT22;9773;47.062;15.446;2023-05-07T05:05:22;13.60;99.90
19279;DHT22;9773;47.062;15.446;2023-05-07T05:07:48;13.70;99.90
19279;DHT22;9773;47.062;15.446;2023-05-07T05:10:13;13.80;99.90
19279;DHT22;9773;47.062;15.446;2023-05-07T05:12:39;13.80;99.90
19279;DHT22;9773;47.062;15.446;2023-05-07T05:15:06;13.80;99.90
19279;DHT22;9773;47.062;15.446;2023-05-07T05:17:31;13.80;99.90
19279;DHT22;9773;47.062;15.446;2023-05-07T05:19:59;13.90;99.90
19279;DHT22;9773;47.062;15.446;2023-05-07T05:22:25;14.00;99.90
19279;DHT22;9773;47.062;15.446;2023-05-07T05:24:51;14.10;99.90
19279;DHT22;9773;47.062;15.446;2023-05-07T05:27:16;14.10;99.90
19279;DHT22;9773;47.062;15.446;2023-05-07T05:29:42;14.20;99.90
19279;DHT22;9773;47.062;15.446;2023-05-07T05:32:08;14.10;99.90
19279;DHT22;9773;47.062;15.446;2023-05-07T05:34:34;14.30;99.90
19279;DHT22;9773;47.062;15.446;2023-05-07T05:36:59;14.30;99.90
19279;DHT22;9773;47.062;15.446;2023-05-07T05:39:25;14.30;99.90
19279;DHT22;9773;47.062;15.446;2023-05-07T05:41:51;14.30;99.90
19279;DHT22;9773;47.062;15.446;2023-05-07T05:44:17;14.30;99.90
19279;DHT22;9773;47.062;15.446;2023-05-07T05:46:42;14.30;99.90
19279;DHT22;9773;47.062;15.446;2023-05-07T05:49:08;14.30;99.90
19279;DHT22;9773;47.062;15.446;2023-05-07T05:51:35;14.30;99.90
19279;DHT22;9773;47.062;15.446;2023-05-07T05:54:00;14.40;99.90
19279;DHT22;9773;47.062;15.446;2023-05-07T05:56:26;14.40;99.90
19279;DHT22;9773;47.062;15.446;2023-05-07T05:58:52;14.50;99.90
19279;DHT22;9773;47.062;15.446;2023-05-07T06:01:19;14.50;99.90
19279;DHT22;9773;47.062;15.446;2023-05-07T06:03:45;14.60;99.90
19279;DHT22;9773;47.062;15.446;2023-05-07T06:06:11;14.60;99.90
19279;DHT22;9773;47.062;15.446;2023-05-07T06:08:37;14.50;99.90
19279;DHT22;9773;47.062;15.446;2023-05-07T06:11:02;14.60;99.90
19279;DHT22;9773;47.062;15.446;2023-05-07T06:13:28;14.70;99.90
19279;DHT22;9773;47.062;15.446;2023-05-07T06:15:54;14.80;99.90
19279;DHT22;9773;47.062;15.446;2023-05-07T06:18:20;15.00;99.90
19279;DHT22;9773;47.062;15.446;2023-05-07T06:20:46;15.00;99.90
19279;DHT22;9773;47.062;15.446;2023-05-07T06:23:11;15.20;99.90
19279;DHT22;9773;47.062;15.446;2023-05-07T06:25:37;15.20;99.90
19279;DHT22;9773;47.062;15.446;2023-05-07T06:28:03;15.30;99.90
19279;DHT22;9773;47.062;15.446;2023-05-07T06:30:28;15.30;99.90
19279;DHT22;9773;47.062;15.446;2023-05-07T06:32:54;15.30;99.90
19279;DHT22;9773;47.062;15.446;2023-05-07T06:35:20;15.50;99.90
19279;DHT22;9773;47.062;15.446;2023-05-07T06:37:46;15.50;99.90
19279;DHT22;9773;47.062;15.446;2023-05-07T06:40:13;15.60;99.90
19279;DHT22;9773;47.062;15.446;2023-05-07T06:42:38;15.70;99.90
19279;DHT22;9773;47.062;15.446;2023-05-07T06:45:05;15.80;99.90
19279;DHT22;9773;47.062;15.446;2023-05-07T06:47:30;15.90;99.90
19279;DHT22;9773;47.062;15.446;2023-05-07T06:49:56;16.00;99.90
19279;DHT22;9773;47.062;15.446;2023-05-07T06:52:22;16.00;99.90
19279;DHT22;9773;47.062;15.446;2023-05-07T06:54:47;16.20;99.90
19279;DHT22;9773;47.062;15.446;2023-05-07T06:57:13;16.30;99.90
19279;DHT22;9773;47.062;15.446;2023-05-07T06:59:39;16.50;99.90
19279;DHT22;9773;47.062;15.446;2023-05-07T07:02:05;16.60;99.90
19279;DHT22;9773;47.062;15.446;2023-05-07T07:04:31;16.80;99.90
19279;DHT22;9773;47.062;15.446;2023-05-07T07:06:57;17.00;99.90
19279;DHT22;9773;47.062;15.446;2023-05-07T07:09:22;17.20;99.90
19279;DHT22;9773;47.062;15.446;2023-05-07T07:11:48;17.30;99.90
19279;DHT22;9773;47.062;15.446;2023-05-07T07:14:14;17.40;99.90
19279;DHT22;9773;47.062;15.446;2023-05-07T07:16:40;17.60;99.90
19279;DHT22;9773;47.062;15.446;2023-05-07T07:19:06;16.80;99.90
19279;DHT22;9773;47.062;15.446;2023-05-07T07:21:32;17.70;99.90
19279;DHT22;9773;47.062;15.446;2023-05-07T07:23:57;17.80;99.90
19279;DHT22;9773;47.062;15.446;2023-05-07T07:26:23;17.90;99.90
19279;DHT22;9773;47.062;15.446;2023-05-07T07:28:49;17.90;99.90
19279;DHT22;9773;47.062;15.446;2023-05-07T07:31:14;18.00;99.90
19279;DHT22;9773;47.062;15.446;2023-05-07T07:33:43;18.10;99.90
19279;DHT22;9773;47.062;15.446;2023-05-07T07:36:09;18.10;99.90
19279;DHT22;9773;47.062;15.446;2023-05-07T07:38:35;18.10;99.90
19279;DHT22;9773;47.062;15.446;2023-05-07T07:41:01;18.10;99.90
19279;DHT22;9773;47.062;15.446;2023-05-07T07:43:27;18.10;99.90
19279;DHT22;9773;47.062;15.446;2023-05-07T07:45:53;18.20;99.90
19279;DHT22;9773;47.062;15.446;2023-05-07T07:48:19;18.10;99.90
19279;DHT22;9773;47.062;15.446;2023-05-07T07:50:44;18.10;99.90
19279;DHT22;9773;47.062;15.446;2023-05-07T07:53:10;18.20;99.90
19279;DHT22;9773;47.062;15.446;2023-05-07T07:55:39;18.20;99.90
19279;DHT22;9773;47.062;15.446;2023-05-07T07:58:05;18.20;99.90
19279;DHT22;9773;47.062;15.446;2023-05-07T08:00:31;18.30;99.90
19279;DHT22;9773;47.062;15.446;2023-05-07T08:02:57;18.30;99.90
19279;DHT22;9773;47.062;15.446;2023-05-07T08:05:23;18.50;99.90
19279;DHT22;9773;47.062;15.446;2023-05-07T08:07:49;18.40;99.90
19279;DHT22;9773;47.062;15.446;2023-05-07T08:10:18;18.40;99.90
19279;DHT22;9773;47.062;15.446;2023-05-07T08:12:48;18.40;99.90
19279;DHT22;9773;47.062;15.446;2023-05-07T08:15:14;18.40;99.90
19279;DHT22;9773;47.062;15.446;2023-05-07T08:17:40;18.30;99.90
19279;DHT22;9773;47.062;15.446;2023-05-07T08:20:06;18.30;99.90
19279;DHT22;9773;47.062;15.446;2023-05-07T08:22:36;18.50;99.90
19279;DHT22;9773;47.062;15.446;2023-05-07T08:25:02;18.60;99.90
19279;DHT22;9773;47.062;15.446;2023-05-07T08:27:28;18.70;99.90
19279;DHT22;9773;47.062;15.446;2023-05-07T08:29:54;18.80;99.90
19279;DHT22;9773;47.062;15.446;2023-05-07T08:32:20;19.00;99.90
19279;DHT22;9773;47.062;15.446;2023-05-07T08:34:47;19.10;99.90
19279;DHT22;9773;47.062;15.446;2023-05-07T08:37:12;19.30;99.90
19279;DHT22;9773;47.062;15.446;2023-05-07T08:39:38;19.40;99.90
19279;DHT22;9773;47.062;15.446;2023-05-07T08:42:04;19.50;99.90
19279;DHT22;9773;47.062;15.446;2023-05-07T08:44:33;19.60;99.90
19279;DHT22;9773;47.062;15.446;2023-05-07T08:47:02;19.50;99.90
19279;DHT22;9773;47.062;15.446;2023-05-07T08:49:31;19.50;99.90
19279;DHT22;9773;47.062;15.446;2023-05-07T08:51:56;19.60;99.90
19279;DHT22;9773;47.062;15.446;2023-05-07T08:54:23;19.70;99.90
19279;DHT22;9773;47.062;15.446;2023-05-07T08:56:50;19.60;99.90
19279;DHT22;9773;47.062;15.446;2023-05-07T08:59:16;19.60;99.90
19279;DHT22;9773;47.062;15.446;2023-05-07T09:01:42;19.00;99.90
19279;DHT22;9773;47.062;15.446;2023-05-07T09:04:08;19.60;99.90
19279;DHT22;9773;47.062;15.446;2023-05-07T09:06:34;19.70;99.90
19279;DHT22;9773;47.062;15.446;2023-05-07T09:09:00;19.90;99.90
19279;DHT22;9773;47.062;15.446;2023-05-07T09:11:27;20.10;99.90
19279;DHT22;9773;47.062;15.446;2023-05-07T09:13:56;20.20;99.90
19279;DHT22;9773;47.062;15.446;2023-05-07T09:16:24;20.30;99.90
19279;DHT22;9773;47.062;15.446;2023-05-07T09:18:54;20.30;99.90
19279;DHT22;9773;47.062;15.446;2023-05-07T09:21:21;20.40;99.90
19279;DHT22;9773;47.062;15.446;2023-05-07T09:23:52;20.60;99.90
19279;DHT22;9773;47.062;15.446;2023-05-07T09:26:21;20.80;99.90
19279;DHT22;9773;47.062;15.446;2023-05-07T09:28:46;20.80;99.90
19279;DHT22;9773;47.062;15.446;2023-05-07T09:31:12;20.80;99.90
19279;DHT22;9773;47.062;15.446;2023-05-07T09:33:39;20.90;99.90
19279;DHT22;9773;47.062;15.446;2023-05-07T09:36:06;20.90;99.90
19279;DHT22;9773;47.062;15.446;2023-05-07T09:38:34;20.80;99.90
19279;DHT22;9773;47.062;15.446;2023-05-07T09:41:07;20.30;99.90
19279;DHT22;9773;47.062;15.446;2023-05-07T09:43:35;20.10;99.90
19279;DHT22;9773;47.062;15.446;2023-05-07T09:46:23;20.10;99.90
19279;DHT22;9773;47.062;15.446;2023-05-07T09:48:52;20.10;99.90
19279;DHT22;9773;47.062;15.446;2023-05-07T09:51:29;20.30;99.90
19279;DHT22;9773;47.062;15.446;2023-05-07T09:53:56;20.40;99.90
19279;DHT22;9773;47.062;15.446;2023-05-07T09:56:22;20.40;99.90
19279;DHT22;9773;47.062;15.446;2023-05-07T09:58:53;20.40;99.90
19279;DHT22;9773;47.062;15.446;2023-05-07T10:01:19;20.50;99.90
19279;DHT22;9773;47.062;15.446;2023-05-07T10:03:49;20.60;99.90
19279;DHT22;9773;47.062;15.446;2023-05-07T10:06:16;20.80;99.90
19279;DHT22;9773;47.062;15.446;2023-05-07T10:08:43;20.90;99.90
19279;DHT22;9773;47.062;15.446;2023-05-07T10:11:09;20.90;99.90
19279;DHT22;9773;47.062;15.446;2023-05-07T10:13:36;21.20;99.90
19279;DHT22;9773;47.062;15.446;2023-05-07T10:16:04;21.40;99.90
19279;DHT22;9773;47.062;15.446;2023-05-07T10:18:31;21.40;99.90
19279;DHT22;9773;47.062;15.446;2023-05-07T10:23:38;21.70;99.90
19279;DHT22;9773;47.062;15.446;2023-05-07T10:26:07;21.70;99.90
19279;DHT22;9773;47.062;15.446;2023-05-07T10:28:37;21.70;99.90
19279;DHT22;9773;47.062;15.446;2023-05-07T10:33:46;21.80;99.90
19279;DHT22;9773;47.062;15.446;2023-05-07T10:36:12;21.90;99.90
19279;DHT22;9773;47.062;15.446;2023-05-07T10:38:38;22.10;99.90
19279;DHT22;9773;47.062;15.446;2023-05-07T10:41:06;22.30;99.90
19279;DHT22;9773;47.062;15.446;2023-05-07T10:43:42;22.50;99.90
19279;DHT22;9773;47.062;15.446;2023-05-07T10:46:18;22.30;99.90
19279;DHT22;9773;47.062;15.446;2023-05-07T10:51:30;22.30;99.90
19279;DHT22;9773;47.062;15.446;2023-05-07T10:56:41;22.50;99.90
19279;DHT22;9773;47.062;15.446;2023-05-07T11:01:56;22.50;99.90
19279;DHT22;9773;47.062;15.446;2023-05-07T11:04:23;22.60;99.90
19279;DHT22;9773;47.062;15.446;2023-05-07T11:09:56;22.90;99.90
19279;DHT22;9773;47.062;15.446;2023-05-07T11:15:38;22.90;99.00
19279;DHT22;9773;47.062;15.446;2023-05-07T11:18:04;23.00;99.20
19279;DHT22;9773;47.062;15.446;2023-05-07T11:20:52;22.90;99.40
19279;DHT22;9773;47.062;15.446;2023-05-07T11:28:30;23.40;98.60
19279;DHT22;9773;47.062;15.446;2023-05-07T11:30:57;23.50;98.60
19279;DHT22;9773;47.062;15.446;2023-05-07T11:33:23;23.40;98.70
19279;DHT22;9773;47.062;15.446;2023-05-07T11:35:53;23.40;98.50
19279;DHT22;9773;47.062;15.446;2023-05-07T11:38:19;23.50;98.50
19279;DHT22;9773;47.062;15.446;2023-05-07T11:40:57;23.40;98.50
19279;DHT22;9773;47.062;15.446;2023-05-07T11:43:23;23.30;98.50
19279;DHT22;9773;47.062;15.446;2023-05-07T11:45:49;23.10;98.20
19279;DHT22;9773;47.062;15.446;2023-05-07T11:48:16;22.90;98.50
19279;DHT22;9773;47.062;15.446;2023-05-07T11:53:27;22.80;98.00
19279;DHT22;9773;47.062;15.446;2023-05-07T11:55:55;22.90;98.20
19279;DHT22;9773;47.062;15.446;2023-05-07T11:58:22;22.60;98.00
19279;DHT22;9773;47.062;15.446;2023-05-07T12:00:49;22.70;98.00
19279;DHT22;9773;47.062;15.446;2023-05-07T12:03:15;22.50;98.10
19279;DHT22;9773;47.062;15.446;2023-05-07T12:05:41;22.50;98.20
19279;DHT22;9773;47.062;15.446;2023-05-07T12:08:07;22.70;98.20
19279;DHT22;9773;47.062;15.446;2023-05-07T12:10:33;22.80;97.70
19279;DHT22;9773;47.062;15.446;2023-05-07T12:12:59;22.90;98.00
19279;DHT22;9773;47.062;15.446;2023-05-07T12:15:25;22.90;98.40
19279;DHT22;9773;47.062;15.446;2023-05-07T12:17:50;22.90;98.40
19279;DHT22;9773;47.062;15.446;2023-05-07T12:20:18;22.90;98.00
19279;DHT22;9773;47.062;15.446;2023-05-07T12:22:44;22.80;97.80
19279;DHT22;9773;47.062;15.446;2023-05-07T12:25:10;22.80;97.90
19279;DHT22;9773;47.062;15.446;2023-05-07T12:27:37;22.80;97.70
19279;DHT22;9773;47.062;15.446;2023-05-07T12:30:04;22.80;98.00
19279;DHT22;9773;47.062;15.446;2023-05-07T12:32:31;22.90;98.10
19279;DHT22;9773;47.062;15.446;2023-05-07T12:35:01;23.00;98.20
19279;DHT22;9773;47.062;15.446;2023-05-07T12:37:27;23.10;98.00
19279;DHT22;9773;47.062;15.446;2023-05-07T12:40:10;23.10;98.20
19279;DHT22;9773;47.062;15.446;2023-05-07T12:42:37;23.10;98.00
19279;DHT22;9773;47.062;15.446;2023-05-07T12:45:15;23.00;97.90
19279;DHT22;9773;47.062;15.446;2023-05-07T12:47:47;22.90;97.60
19279;DHT22;9773;47.062;15.446;2023-05-07T12:50:14;22.60;97.90
19279;DHT22;9773;47.062;15.446;2023-05-07T12:52:40;22.50;98.00
19279;DHT22;9773;47.062;15.446;2023-05-07T12:55:07;22.40;98.00
19279;DHT22;9773;47.062;15.446;2023-05-07T12:57:40;22.30;98.10
19279;DHT22;9773;47.062;15.446;2023-05-07T13:00:07;22.20;98.50
19279;DHT22;9773;47.062;15.446;2023-05-07T13:02:33;22.00;98.40
19279;DHT22;9773;47.062;15.446;2023-05-07T13:05:01;21.90;98.20
19279;DHT22;9773;47.062;15.446;2023-05-07T13:07:26;21.80;98.90
19279;DHT22;9773;47.062;15.446;2023-05-07T13:09:52;21.60;98.60
19279;DHT22;9773;47.062;15.446;2023-05-07T13:12:18;21.60;99.70
19279;DHT22;9773;47.062;15.446;2023-05-07T13:14:43;21.40;99.90
19279;DHT22;9773;47.062;15.446;2023-05-07T13:17:09;21.10;99.90
19279;DHT22;9773;47.062;15.446;2023-05-07T13:19:35;20.50;99.90
19279;DHT22;9773;47.062;15.446;2023-05-07T13:22:03;20.30;99.90
19279;DHT22;9773;47.062;15.446;2023-05-07T13:24:28;20.10;99.90
19279;DHT22;9773;47.062;15.446;2023-05-07T13:26:54;19.90;99.90
19279;DHT22;9773;47.062;15.446;2023-05-07T13:29:20;19.70;99.90
19279;DHT22;9773;47.062;15.446;2023-05-07T13:31:50;19.50;99.90
19279;DHT22;9773;47.062;15.446;2023-05-07T13:34:16;19.20;99.90
19279;DHT22;9773;47.062;15.446;2023-05-07T13:36:42;18.90;99.90
19279;DHT22;9773;47.062;15.446;2023-05-07T13:39:08;18.60;99.90
19279;DHT22;9773;47.062;15.446;2023-05-07T13:41:34;18.40;99.90
19279;DHT22;9773;47.062;15.446;2023-05-07T13:44:00;18.20;99.90
19279;DHT22;9773;47.062;15.446;2023-05-07T13:46:25;18.20;99.90
19279;DHT22;9773;47.062;15.446;2023-05-07T13:48:52;18.10;99.90
19279;DHT22;9773;47.062;15.446;2023-05-07T13:51:17;18.00;99.90
19279;DHT22;9773;47.062;15.446;2023-05-07T13:53:43;17.90;99.90
19279;DHT22;9773;47.062;15.446;2023-05-07T13:56:10;17.80;99.90
19279;DHT22;9773;47.062;15.446;2023-05-07T13:58:36;17.80;99.90
19279;DHT22;9773;47.062;15.446;2023-05-07T14:01:02;17.90;99.90
19279;DHT22;9773;47.062;15.446;2023-05-07T14:03:28;17.80;99.90
19279;DHT22;9773;47.062;15.446;2023-05-07T14:05:53;17.80;99.90
19279;DHT22;9773;47.062;15.446;2023-05-07T14:08:19;17.60;99.90
19279;DHT22;9773;47.062;15.446;2023-05-07T14:10:45;17.50;99.90
19279;DHT22;9773;47.062;15.446;2023-05-07T14:13:11;17.70;99.90
19279;DHT22;9773;47.062;15.446;2023-05-07T14:15:37;17.70;99.90
19279;DHT22;9773;47.062;15.446;2023-05-07T14:18:03;17.70;99.90
19279;DHT22;9773;47.062;15.446;2023-05-07T14:20:29;17.50;99.90
19279;DHT22;9773;47.062;15.446;2023-05-07T14:22:56;17.50;99.90
19279;DHT22;9773;47.062;15.446;2023-05-07T14:25:22;17.50;99.90
19279;DHT22;9773;47.062;15.446;2023-05-07T14:27:47;17.50;99.90
19279;DHT22;9773;47.062;15.446;2023-05-07T14:30:13;17.40;99.90
19279;DHT22;9773;47.062;15.446;2023-05-07T14:32:39;17.30;99.90
19279;DHT22;9773;47.062;15.446;2023-05-07T14:35:05;17.10;99.90
19279;DHT22;9773;47.062;15.446;2023-05-07T14:37:30;17.10;99.90
19279;DHT22;9773;47.062;15.446;2023-05-07T14:39:56;17.10;99.90
19279;DHT22;9773;47.062;15.446;2023-05-07T14:42:22;17.30;99.90
19279;DHT22;9773;47.062;15.446;2023-05-07T14:44:47;18.30;99.90
19279;DHT22;9773;47.062;15.446;2023-05-07T14:47:14;17.40;99.90
19279;DHT22;9773;47.062;15.446;2023-05-07T14:49:41;17.50;99.90
19279;DHT22;9773;47.062;15.446;2023-05-07T14:52:07;17.50;99.90
19279;DHT22;9773;47.062;15.446;2023-05-07T14:54:35;17.50;99.90
19279;DHT22;9773;47.062;15.446;2023-05-07T14:57:01;17.50;99.90
19279;DHT22;9773;47.062;15.446;2023-05-07T14:59:27;17.40;99.90
19279;DHT22;9773;47.062;15.446;2023-05-07T15:01:54;17.40;99.90
19279;DHT22;9773;47.062;15.446;2023-05-07T15:04:19;17.40;99.90
19279;DHT22;9773;47.062;15.446;2023-05-07T15:06:45;17.40;99.90
19279;DHT22;9773;47.062;15.446;2023-05-07T15:09:11;17.40;99.90
19279;DHT22;9773;47.062;15.446;2023-05-07T15:11:37;17.50;99.90
19279;DHT22;9773;47.062;15.446;2023-05-07T15:14:03;17.70;99.90
19279;DHT22;9773;47.062;15.446;2023-05-07T15:16:29;17.50;99.90
19279;DHT22;9773;47.062;15.446;2023-05-07T15:18:55;17.40;99.90
19279;DHT22;9773;47.062;15.446;2023-05-07T15:21:20;17.40;99.90
19279;DHT22;9773;47.062;15.446;2023-05-07T15:23:46;17.40;99.90
19279;DHT22;9773;47.062;15.446;2023-05-07T15:26:12;17.30;99.90
19279;DHT22;9773;47.062;15.446;2023-05-07T15:28:37;17.20;99.90
19279;DHT22;9773;47.062;15.446;2023-05-07T15:31:04;17.30;99.90
19279;DHT22;9773;47.062;15.446;2023-05-07T15:33:32;17.50;99.90
19279;DHT22;9773;47.062;15.446;2023-05-07T15:35:58;17.60;99.90
19279;DHT22;9773;47.062;15.446;2023-05-07T15:38:25;17.70;99.90
19279;DHT22;9773;47.062;15.446;2023-05-07T15:40:51;17.90;99.90
19279;DHT22;9773;47.062;15.446;2023-05-07T15:43:17;17.80;99.90
19279;DHT22;9773;47.062;15.446;2023-05-07T15:45:43;17.80;99.90
19279;DHT22;9773;47.062;15.446;2023-05-07T15:48:10;17.80;99.90
19279;DHT22;9773;47.062;15.446;2023-05-07T15:50:36;17.60;99.90
19279;DHT22;9773;47.062;15.446;2023-05-07T15:53:03;17.70;99.90